sensor_id;sensor_type;location;lat;lon;timestamp;temperature;humidity
18163;DHT22;9206;50.994;4.538;2023-05-07T00:07:07;14.60;99.90
18163;DHT22;9206;50.994;4.538;2023-05-07T00:09:37;14.60;99.90
18163;DHT22;9206;50.994;4.538;2023-05-07T00:16:21;14.60;99.90
18163;DHT22;9206;50.994;4.538;2023-05-07T00:28:11;14.60;99.90
18163;DHT22;9206;50.994;4.538;2023-05-07T00:30:39;14.60;99.90
18163;DHT22;9206;50.994;4.538;2023-05-07T00:33:16;14.60;99.90
18163;DHT22;9206;50.994;4.538;2023-05-07T00:35:54;14.60;99.90
18163;DHT22;9206;50.994;4.538;2023-05-07T00:39:00;14.60;99.90
18163;DHT22;9206;50.994;4.538;2023-05-07T00:44:06;14.60;99.90
18163;DHT22;9206;50.994;4.538;2023-05-07T00:46:38;14.60;99.90
18163;DHT22;9206;50.994;4.538;2023-05-07T00:50:54;14.60;99.90
18163;DHT22;9206;50.994;4.538;2023-05-07T00:53:03;14.60;99.90
18163;DHT22;9206;50.994;4.538;2023-05-07T00:59:12;14.60;99.90
18163;DHT22;9206;50.994;4.538;2023-05-07T01:05:37;14.60;99.90
18163;DHT22;9206;50.994;4.538;2023-05-07T01:08:28;14.50;99.90
18163;DHT22;9206;50.994;4.538;2023-05-07T01:27:14;14.50;99.90
18163;DHT22;9206;50.994;4.538;2023-05-07T01:28:32;14.50;99.90
18163;DHT22;9206;50.994;4.538;2023-05-07T01:31:41;14.40;99.90
18163;DHT22;9206;50.994;4.538;2023-05-07T01:34:30;14.40;99.90
18163;DHT22;9206;50.994;4.538;2023-05-07T01:37:48;14.40;99.90
18163;DHT22;9206;50.994;4.538;2023-05-07T01:43:53;14.40;99.90
18163;DHT22;9206;50.994;4.538;2023-05-07T01:50:41;14.30;99.90
18163;DHT22;9206;50.994;4.538;2023-05-07T01:53:51;14.40;99.90
18163;DHT22;9206;50.994;4.538;2023-05-07T02:18:43;14.20;99.90
18163;DHT22;9206;50.994;4.538;2023-05-07T02:21:52;14.20;99.90
18163;DHT22;9206;50.994;4.538;2023-05-07T02:34:31;14.30;99.90
18163;DHT22;9206;50.994;4.538;2023-05-07T02:37:06;14.20;99.90
18163;DHT22;9206;50.994;4.538;2023-05-07T02:39:48;14.10;99.90
18163;DHT22;9206;50.994;4.538;2023-05-07T02:42:34;14.10;99.90
18163;DHT22;9206;50.994;4.538;2023-05-07T02:45:06;14.00;99.90
18163;DHT22;9206;50.994;4.538;2023-05-07T02:51:43;13.90;99.90
18163;DHT22;9206;50.994;4.538;2023-05-07T02:57:07;14.00;99.90
18163;DHT22;9206;50.994;4.538;2023-05-07T03:04:34;13.80;99.90
18163;DHT22;9206;50.994;4.538;2023-05-07T03:07:11;13.70;99.90
18163;DHT22;9206;50.994;4.538;2023-05-07T03:16:46;13.70;99.90
18163;DHT22;9206;50.994;4.538;2023-05-07T03:51:27;13.90;99.90
18163;DHT22;9206;50.994;4.538;2023-05-07T07:27:42;16.90;99.90
18163;DHT22;9206;50.994;4.538;2023-05-07T07:30:16;16.90;99.90
18163;DHT22;9206;50.994;4.538;2023-05-07T07:32:44;17.00;99.90
18163;DHT22;9206;50.994;4.538;2023-05-07T07:35:45;17.00;99.90
18163;DHT22;9206;50.994;4.538;2023-05-07T07:38:25;17.00;99.90
18163;DHT22;9206;50.994;4.538;2023-05-07T07:40:54;17.00;99.90
18163;DHT22;9206;50.994;4.538;2023-05-07T07:43:26;16.90;99.90
18163;DHT22;9206;50.994;4.538;2023-05-07T07:46:11;16.80;99.90
18163;DHT22;9206;50.994;4.538;2023-05-07T07:49:13;16.80;99.90
18163;DHT22;9206;50.994;4.538;2023-05-07T07:51:56;16.80;99.90
18163;DHT22;9206;50.994;4.538;2023-05-07T07:54:27;16.80;99.90
18163;DHT22;9206;50.994;4.538;2023-05-07T07:56:58;16.90;99.90
18163;DHT22;9206;50.994;4.538;2023-05-07T07:59:26;16.90;99.90
18163;DHT22;9206;50.994;4.538;2023-05-07T08:02:03;17.00;99.90
18163;DHT22;9206;50.994;4.538;2023-05-07T08:04:34;16.90;99.90
18163;DHT22;9206;50.994;4.538;2023-05-07T08:07:08;17.00;99.90
18163;DHT22;9206;50.994;4.538;2023-05-07T08:09:42;17.00;99.90
18163;DHT22;9206;50.994;4.538;2023-05-07T08:12:15;17.20;99.90
18163;DHT22;9206;50.994;4.538;2023-05-07T08:14:50;17.20;99.90
18163;DHT22;9206;50.994;4.538;2023-05-07T08:17:28;17.20;99.90
18163;DHT22;9206;50.994;4.538;2023-05-07T08:19:55;17.20;99.90
18163;DHT22;9206;50.994;4.538;2023-05-07T08:22:38;17.20;99.90
18163;DHT22;9206;50.994;4.538;2023-05-07T08:25:09;17.20;99.90
18163;DHT22;9206;50.994;4.538;2023-05-07T08:27:37;17.20;99.90
18163;DHT22;9206;50.994;4.538;2023-05-07T08:30:07;17.30;99.90
18163;DHT22;9206;50.994;4.538;2023-05-07T08:32:38;17.30;99.90
18163;DHT22;9206;50.994;4.538;2023-05-07T08:35:14;17.30;99.90
18163;DHT22;9206;50.994;4.538;2023-05-07T08:37:58;17.50;99.90
18163;DHT22;9206;50.994;4.538;2023-05-07T08:40:40;17.60;99.90
18163;DHT22;9206;50.994;4.538;2023-05-07T08:43:14;17.60;99.90
18163;DHT22;9206;50.994;4.538;2023-05-07T08:45:49;17.60;99.90
18163;DHT22;9206;50.994;4.538;2023-05-07T08:48:21;17.70;99.90
18163;DHT22;9206;50.994;4.538;2023-05-07T08:51:04;17.80;99.90
18163;DHT22;9206;50.994;4.538;2023-05-07T08:53:33;17.80;99.90
18163;DHT22;9206;50.994;4.538;2023-05-07T08:56:01;17.80;99.90
18163;DHT22;9206;50.994;4.538;2023-05-07T08:58:35;17.90;99.90
18163;DHT22;9206;50.994;4.538;2023-05-07T09:01:16;17.80;99.90
18163;DHT22;9206;50.994;4.538;2023-05-07T09:03:47;17.80;99.90
18163;DHT22;9206;50.994;4.538;2023-05-07T09:06:15;17.90;99.90
18163;DHT22;9206;50.994;4.538;2023-05-07T09:08:49;17.80;99.90
18163;DHT22;9206;50.994;4.538;2023-05-07T09:11:21;17.70;99.90
18163;DHT22;9206;50.994;4.538;2023-05-07T09:13:55;17.70;99.90
18163;DHT22;9206;50.994;4.538;2023-05-07T09:16:26;17.70;99.90
18163;DHT22;9206;50.994;4.538;2023-05-07T09:18:54;17.60;99.90
18163;DHT22;9206;50.994;4.538;2023-05-07T09:21:22;17.70;99.90
18163;DHT22;9206;50.994;4.538;2023-05-07T09:24:06;17.70;99.90
18163;DHT22;9206;50.994;4.538;2023-05-07T09:26:34;17.80;99.90
18163;DHT22;9206;50.994;4.538;2023-05-07T09:29:23;17.90;99.90
18163;DHT22;9206;50.994;4.538;2023-05-07T09:32:12;17.90;99.90
18163;DHT22;9206;50.994;4.538;2023-05-07T09:35:00;17.90;99.90
18163;DHT22;9206;50.994;4.538;2023-05-07T09:37:48;17.90;99.90
18163;DHT22;9206;50.994;4.538;2023-05-07T09:40:37;17.80;99.90
18163;DHT22;9206;50.994;4.538;2023-05-07T09:43:32;17.80;99.90
18163;DHT22;9206;50.994;4.538;2023-05-07T09:46:30;17.80;99.90
18163;DHT22;9206;50.994;4.538;2023-05-07T09:49:21;17.80;99.90
18163;DHT22;9206;50.994;4.538;2023-05-07T09:52:09;17.80;99.90
18163;DHT22;9206;50.994;4.538;2023-05-07T09:55:00;17.90;99.90
18163;DHT22;9206;50.994;4.538;2023-05-07T09:57:52;18.00;99.90
18163;DHT22;9206;50.994;4.538;2023-05-07T10:00:43;18.10;99.90
18163;DHT22;9206;50.994;4.538;2023-05-07T10:03:35;18.10;99.90
18163;DHT22;9206;50.994;4.538;2023-05-07T10:06:27;18.20;99.90
18163;DHT22;9206;50.994;4.538;2023-05-07T10:09:18;18.30;99.90
18163;DHT22;9206;50.994;4.538;2023-05-07T10:12:06;18.40;99.90
18163;DHT22;9206;50.994;4.538;2023-05-07T10:14:56;18.40;99.90
18163;DHT22;9206;50.994;4.538;2023-05-07T10:17:44;18.50;99.90
18163;DHT22;9206;50.994;4.538;2023-05-07T10:20:11;18.50;99.90
18163;DHT22;9206;50.994;4.538;2023-05-07T10:22:42;18.50;99.90
18163;DHT22;9206;50.994;4.538;2023-05-07T10:25:28;18.40;99.90
18163;DHT22;9206;50.994;4.538;2023-05-07T10:28:10;18.40;99.90
18163;DHT22;9206;50.994;4.538;2023-05-07T10:30:48;18.40;99.90
18163;DHT22;9206;50.994;4.538;2023-05-07T10:33:25;18.50;99.90
18163;DHT22;9206;50.994;4.538;2023-05-07T10:35:57;18.50;99.90
18163;DHT22;9206;50.994;4.538;2023-05-07T10:38:28;18.60;99.90
18163;DHT22;9206;50.994;4.538;2023-05-07T10:41:17;18.70;99.90
18163;DHT22;9206;50.994;4.538;2023-05-07T10:44:08;18.70;99.90
18163;DHT22;9206;50.994;4.538;2023-05-07T10:47:07;18.70;99.90
18163;DHT22;9206;50.994;4.538;2023-05-07T10:50:20;18.70;99.90
18163;DHT22;9206;50.994;4.538;2023-05-07T10:53:23;18.70;99.90
18163;DHT22;9206;50.994;4.538;2023-05-07T10:56:35;18.70;99.90
18163;DHT22;9206;50.994;4.538;2023-05-07T10:59:36;18.70;99.90
18163;DHT22;9206;50.994;4.538;2023-05-07T11:05:41;18.60;99.90
18163;DHT22;9206;50.994;4.538;2023-05-07T11:08:53;18.70;99.90
18163;DHT22;9206;50.994;4.538;2023-05-07T11:11:46;18.80;99.90
18163;DHT22;9206;50.994;4.538;2023-05-07T11:14:44;18.80;99.90
18163;DHT22;9206;50.994;4.538;2023-05-07T11:17:52;18.80;99.90
18163;DHT22;9206;50.994;4.538;2023-05-07T11:20:55;18.90;99.90
18163;DHT22;9206;50.994;4.538;2023-05-07T11:24:00;19.00;99.90
18163;DHT22;9206;50.994;4.538;2023-05-07T11:26:51;19.10;99.90
18163;DHT22;9206;50.994;4.538;2023-05-07T11:29:48;19.20;99.90
18163;DHT22;9206;50.994;4.538;2023-05-07T11:32:41;19.30;99.90
18163;DHT22;9206;50.994;4.538;2023-05-07T11:35:37;19.40;99.90
18163;DHT22;9206;50.994;4.538;2023-05-07T11:38:37;19.60;99.90
18163;DHT22;9206;50.994;4.538;2023-05-07T11:41:34;19.60;99.90
18163;DHT22;9206;50.994;4.538;2023-05-07T11:44:24;19.60;99.90
18163;DHT22;9206;50.994;4.538;2023-05-07T11:47:20;19.70;99.90
18163;DHT22;9206;50.994;4.538;2023-05-07T11:50:11;19.80;99.90
18163;DHT22;9206;50.994;4.538;2023-05-07T11:52:58;19.80;99.90
18163;DHT22;9206;50.994;4.538;2023-05-07T11:55:46;19.90;99.90
18163;DHT22;9206;50.994;4.538;2023-05-07T11:58:42;19.80;99.90
18163;DHT22;9206;50.994;4.538;2023-05-07T12:01:35;19.90;99.90
18163;DHT22;9206;50.994;4.538;2023-05-07T12:04:29;19.90;99.90
18163;DHT22;9206;50.994;4.538;2023-05-07T12:07:18;20.00;99.90
18163;DHT22;9206;50.994;4.538;2023-05-07T12:10:11;20.00;99.90
18163;DHT22;9206;50.994;4.538;2023-05-07T12:13:00;20.10;99.90
18163;DHT22;9206;50.994;4.538;2023-05-07T12:16:01;20.30;99.90
18163;DHT22;9206;50.994;4.538;2023-05-07T12:19:09;20.30;99.90
18163;DHT22;9206;50.994;4.538;2023-05-07T12:22:01;20.30;99.90
18163;DHT22;9206;50.994;4.538;2023-05-07T12:24:57;20.50;99.90
18163;DHT22;9206;50.994;4.538;2023-05-07T12:27:51;20.60;99.90
18163;DHT22;9206;50.994;4.538;2023-05-07T12:30:49;20.80;99.90
18163;DHT22;9206;50.994;4.538;2023-05-07T12:33:37;21.00;99.90
18163;DHT22;9206;50.994;4.538;2023-05-07T12:36:38;21.20;99.90
18163;DHT22;9206;50.994;4.538;2023-05-07T12:39:26;21.30;99.90
18163;DHT22;9206;50.994;4.538;2023-05-07T12:42:21;21.40;99.90
18163;DHT22;9206;50.994;4.538;2023-05-07T12:45:12;21.40;99.90
18163;DHT22;9206;50.994;4.538;2023-05-07T12:48:11;21.40;99.90
18163;DHT22;9206;50.994;4.538;2023-05-07T12:51:05;21.50;99.90
18163;DHT22;9206;50.994;4.538;2023-05-07T12:54:06;21.60;99.90
18163;DHT22;9206;50.994;4.538;2023-05-07T12:57:01;21.60;99.90
18163;DHT22;9206;50.994;4.538;2023-05-07T12:59:50;21.80;99.90
18163;DHT22;9206;50.994;4.538;2023-05-07T13:02:20;21.80;99.90
18163;DHT22;9206;50.994;4.538;2023-05-07T13:04:48;21.90;99.90
18163;DHT22;9206;50.994;4.538;2023-05-07T13:07:18;21.90;99.90
18163;DHT22;9206;50.994;4.538;2023-05-07T13:09:48;21.90;99.90
18163;DHT22;9206;50.994;4.538;2023-05-07T13:12:16;22.00;99.90
18163;DHT22;9206;50.994;4.538;2023-05-07T13:14:50;22.00;99.90
18163;DHT22;9206;50.994;4.538;2023-05-07T13:17:18;22.00;99.90
18163;DHT22;9206;50.994;4.538;2023-05-07T13:19:47;22.00;99.90
18163;DHT22;9206;50.994;4.538;2023-05-07T13:22:15;22.00;99.90
18163;DHT22;9206;50.994;4.538;2023-05-07T13:24:50;21.90;99.90
18163;DHT22;9206;50.994;4.538;2023-05-07T13:27:17;22.00;99.90
18163;DHT22;9206;50.994;4.538;2023-05-07T13:29:48;21.90;99.90
18163;DHT22;9206;50.994;4.538;2023-05-07T13:32:27;21.90;99.90
18163;DHT22;9206;50.994;4.538;2023-05-07T13:35:04;22.00;99.90
18163;DHT22;9206;50.994;4.538;2023-05-07T13:37:37;22.10;99.90
18163;DHT22;9206;50.994;4.538;2023-05-07T13:40:15;21.90;99.90
18163;DHT22;9206;50.994;4.538;2023-05-07T13:42:44;21.90;99.90
18163;DHT22;9206;50.994;4.538;2023-05-07T13:45:33;21.90;99.90
18163;DHT22;9206;50.994;4.538;2023-05-07T13:48:21;22.00;99.90
18163;DHT22;9206;50.994;4.538;2023-05-07T13:51:11;21.90;99.90
18163;DHT22;9206;50.994;4.538;2023-05-07T13:53:59;21.70;99.90
18163;DHT22;9206;50.994;4.538;2023-05-07T13:56:54;21.70;99.90
18163;DHT22;9206;50.994;4.538;2023-05-07T13:59:42;21.60;99.90
18163;DHT22;9206;50.994;4.538;2023-05-07T14:02:32;21.60;99.90
18163;DHT22;9206;50.994;4.538;2023-05-07T14:05:21;21.70;99.90
18163;DHT22;9206;50.994;4.538;2023-05-07T14:08:10;21.60;99.90
18163;DHT22;9206;50.994;4.538;2023-05-07T14:11:01;21.60;99.90
18163;DHT22;9206;50.994;4.538;2023-05-07T14:13:52;21.50;99.90
18163;DHT22;9206;50.994;4.538;2023-05-07T14:16:41;21.50;99.90
18163;DHT22;9206;50.994;4.538;2023-05-07T14:19:32;21.30;99.90
18163;DHT22;9206;50.994;4.538;2023-05-07T14:22:22;21.20;99.90
18163;DHT22;9206;50.994;4.538;2023-05-07T14:25:09;21.20;99.90
18163;DHT22;9206;50.994;4.538;2023-05-07T14:27:57;21.20;99.90
18163;DHT22;9206;50.994;4.538;2023-05-07T14:30:46;21.20;99.90
18163;DHT22;9206;50.994;4.538;2023-05-07T14:33:34;21.40;99.90
18163;DHT22;9206;50.994;4.538;2023-05-07T14:36:25;21.30;99.90
18163;DHT22;9206;50.994;4.538;2023-05-07T14:39:16;21.20;99.90
18163;DHT22;9206;50.994;4.538;2023-05-07T14:42:04;21.40;99.90
18163;DHT22;9206;50.994;4.538;2023-05-07T14:44:54;21.50;99.90
18163;DHT22;9206;50.994;4.538;2023-05-07T14:47:49;21.50;99.90
18163;DHT22;9206;50.994;4.538;2023-05-07T14:50:39;21.50;99.90
18163;DHT22;9206;50.994;4.538;2023-05-07T14:53:26;21.60;99.90
18163;DHT22;9206;50.994;4.538;2023-05-07T14:56:13;21.60;99.90
18163;DHT22;9206;50.994;4.538;2023-05-07T14:59:07;21.60;99.90
18163;DHT22;9206;50.994;4.538;2023-05-07T15:02:00;21.60;99.90
18163;DHT22;9206;50.994;4.538;2023-05-07T15:04:49;21.50;99.90
18163;DHT22;9206;50.994;4.538;2023-05-07T15:07:43;21.50;99.90
18163;DHT22;9206;50.994;4.538;2023-05-07T15:10:37;21.40;99.90
18163;DHT22;9206;50.994;4.538;2023-05-07T15:13:30;21.40;99.90
18163;DHT22;9206;50.994;4.538;2023-05-07T15:16:28;21.40;99.90
18163;DHT22;9206;50.994;4.538;2023-05-07T15:19:15;21.40;99.90
18163;DHT22;9206;50.994;4.538;2023-05-07T15:22:05;21.20;99.90
18163;DHT22;9206;50.994;4.538;2023-05-07T15:24:53;21.20;99.90
18163;DHT22;9206;50.994;4.538;2023-05-07T15:27:41;21.20;99.90
18163;DHT22;9206;50.994;4.538;2023-05-07T15:30:31;21.10;99.90
18163;DHT22;9206;50.994;4.538;2023-05-07T15:33:23;21.10;99.90
18163;DHT22;9206;50.994;4.538;2023-05-07T15:36:10;21.10;99.90
18163;DHT22;9206;50.994;4.538;2023-05-07T15:39:02;21.10;99.90
18163;DHT22;9206;50.994;4.538;2023-05-07T15:42:03;21.00;99.90
18163;DHT22;9206;50.994;4.538;2023-05-07T15:44:54;20.90;99.90
18163;DHT22;9206;50.994;4.538;2023-05-07T15:47:42;20.90;99.90
18163;DHT22;9206;50.994;4.538;2023-05-07T15:50:31;20.80;99.90
18163;DHT22;9206;50.994;4.538;2023-05-07T15:53:20;20.70;99.90
18163;DHT22;9206;50.994;4.538;2023-05-07T15:56:12;20.60;99.90
18163;DHT22;9206;50.994;4.538;2023-05-07T15:59:02;20.50;99.90
18163;DHT22;9206;50.994;4.538;2023-05-07T16:01:51;20.40;99.90
18163;DHT22;9206;50.994;4.538;2023-05-07T16:04:44;20.40;99.90
18163;DHT22;9206;50.994;4.538;2023-05-07T16:07:32;20.40;99.90
18163;DHT22;9206;50.994;4.538;2023-05-07T16:10:21;20.50;99.90
18163;DHT22;9206;50.994;4.538;2023-05-07T16:13:33;20.40;99.90
18163;DHT22;9206;50.994;4.538;2023-05-07T16:16:22;20.30;99.90
18163;DHT22;9206;50.994;4.538;2023-05-07T16:19:14;20.30;99.90
18163;DHT22;9206;50.994;4.538;2023-05-07T16:22:02;20.40;99.90
18163;DHT22;9206;50.994;4.538;2023-05-07T16:24:49;20.40;99.90
18163;DHT22;9206;50.994;4.538;2023-05-07T16:27:37;20.30;99.90
18163;DHT22;9206;50.994;4.538;2023-05-07T16:30:28;20.20;99.90
18163;DHT22;9206;50.994;4.538;2023-05-07T16:33:15;20.20;99.90
18163;DHT22;9206;50.994;4.538;2023-05-07T16:36:03;20.20;99.90
18163;DHT22;9206;50.994;4.538;2023-05-07T16:38:51;20.10;99.90
18163;DHT22;9206;50.994;4.538;2023-05-07T16:41:39;20.00;99.90
18163;DHT22;9206;50.994;4.538;2023-05-07T16:44:26;19.90;99.90
18163;DHT22;9206;50.994;4.538;2023-05-07T16:47:21;19.80;99.90
18163;DHT22;9206;50.994;4.538;2023-05-07T16:50:09;19.60;99.90
18163;DHT22;9206;50.994;4.538;2023-05-07T16:53:03;19.50;99.90
18163;DHT22;9206;50.994;4.538;2023-05-07T16:55:53;19.40;99.90
18163;DHT22;9206;50.994;4.538;2023-05-07T16:58:41;19.40;99.90
18163;DHT22;9206;50.994;4.538;2023-05-07T17:01:33;19.30;99.90
18163;DHT22;9206;50.994;4.538;2023-05-07T17:04:27;19.30;99.90
18163;DHT22;9206;50.994;4.538;2023-05-07T17:07:25;19.30;99.90
18163;DHT22;9206;50.994;4.538;2023-05-07T17:10:25;19.30;99.90
18163;DHT22;9206;50.994;4.538;2023-05-07T17:13:28;19.20;99.90
18163;DHT22;9206;50.994;4.538;2023-05-07T17:16:21;19.30;99.90
18163;DHT22;9206;50.994;4.538;2023-05-07T17:19:17;19.30;99.90
18163;DHT22;9206;50.994;4.538;2023-05-07T17:22:08;19.30;99.90
18163;DHT22;9206;50.994;4.538;2023-05-07T17:25:07;19.20;99.90
18163;DHT22;9206;50.994;4.538;2023-05-07T17:27:55;19.10;99.90
18163;DHT22;9206;50.994;4.538;2023-05-07T17:30:52;19.10;99.90
18163;DHT22;9206;50.994;4.538;2023-05-07T17:33:53;19.10;99.90
18163;DHT22;9206;50.994;4.538;2023-05-07T17:36:42;19.10;99.90
18163;DHT22;9206;50.994;4.538;2023-05-07T17:39:35;19.10;99.90
18163;DHT22;9206;50.994;4.538;2023-05-07T17:42:24;19.10;99.90
18163;DHT22;9206;50.994;4.538;2023-05-07T17:45:17;19.20;99.90
18163;DHT22;9206;50.994;4.538;2023-05-07T17:48:10;19.10;99.90
18163;DHT22;9206;50.994;4.538;2023-05-07T17:51:00;19.00;99.90
18163;DHT22;9206;50.994;4.538;2023-05-07T17:53:49;19.00;99.90
18163;DHT22;9206;50.994;4.538;2023-05-07T17:56:41;19.00;99.90
18163;DHT22;9206;50.994;4.538;2023-05-07T17:59:29;19.10;99.90
18163;DHT22;9206;50.994;4.538;2023-05-07T18:02:23;19.10;99.90
18163;DHT22;9206;50.994;4.538;2023-05-07T18:05:27;19.10;99.90
18163;DHT22;9206;50.994;4.538;2023-05-07T18:08:15;19.00;99.90
18163;DHT22;9206;50.994;4.538;2023-05-07T18:11:05;18.90;99.90
18163;DHT22;9206;50.994;4.538;2023-05-07T18:14:04;18.80;99.90
18163;DHT22;9206;50.994;4.538;2023-05-07T18:16:52;18.80;99.90
18163;DHT22;9206;50.994;4.538;2023-05-07T18:19:43;18.70;99.90
18163;DHT22;9206;50.994;4.538;2023-05-07T18:22:30;18.60;99.90
18163;DHT22;9206;50.994;4.538;2023-05-07T18:25:18;18.50;99.90
18163;DHT22;9206;50.994;4.538;2023-05-07T18:28:06;18.50;99.90
18163;DHT22;9206;50.994;4.538;2023-05-07T18:30:55;18.50;99.90
18163;DHT22;9206;50.994;4.538;2023-05-07T18:33:50;18.40;99.90
18163;DHT22;9206;50.994;4.538;2023-05-07T18:36:41;18.30;99.90
18163;DHT22;9206;50.994;4.538;2023-05-07T18:39:35;18.10;99.90
18163;DHT22;9206;50.994;4.538;2023-05-07T18:42:22;18.00;99.90
18163;DHT22;9206;50.994;4.538;2023-05-07T18:45:10;17.90;99.90
18163;DHT22;9206;50.994;4.538;2023-05-07T18:47:59;17.80;99.90
18163;DHT22;9206;50.994;4.538;2023-05-07T18:50:47;17.70;99.90
18163;DHT22;9206;50.994;4.538;2023-05-07T18:53:41;17.60;99.90
18163;DHT22;9206;50.994;4.538;2023-05-07T18:56:31;17.50;99.90
18163;DHT22;9206;50.994;4.538;2023-05-07T18:59:21;17.50;99.90
18163;DHT22;9206;50.994;4.538;2023-05-07T19:02:10;17.40;99.90
18163;DHT22;9206;50.994;4.538;2023-05-07T19:05:00;17.40;99.90
18163;DHT22;9206;50.994;4.538;2023-05-07T19:07:49;17.30;99.90
18163;DHT22;9206;50.994;4.538;2023-05-07T19:10:47;17.30;99.90
18163;DHT22;9206;50.994;4.538;2023-05-07T19:13:35;17.20;99.90
18163;DHT22;9206;50.994;4.538;2023-05-07T19:16:22;17.20;99.90
18163;DHT22;9206;50.994;4.538;2023-05-07T19:19:10;17.10;99.90
18163;DHT22;9206;50.994;4.538;2023-05-07T19:22:02;17.10;99.90
18163;DHT22;9206;50.994;4.538;2023-05-07T19:24:49;17.00;99.90
18163;DHT22;9206;50.994;4.538;2023-05-07T19:27:40;16.90;99.90
18163;DHT22;9206;50.994;4.538;2023-05-07T19:30:29;16.80;99.90
18163;DHT22;9206;50.994;4.538;2023-05-07T19:33:24;16.80;99.90
18163;DHT22;9206;50.994;4.538;2023-05-07T19:36:16;16.80;99.90
18163;DHT22;9206;50.994;4.538;2023-05-07T19:39:05;16.80;99.90
18163;DHT22;9206;50.994;4.538;2023-05-07T19:41:56;16.80;99.90
18163;DHT22;9206;50.994;4.538;2023-05-07T19:44:46;16.80;99.90
18163;DHT22;9206;50.994;4.538;2023-05-07T19:47:35;16.80;99.90
18163;DHT22;9206;50.994;4.538;2023-05-07T19:50:25;16.80;99.90
18163;DHT22;9206;50.994;4.538;2023-05-07T19:53:13;16.70;99.90
18163;DHT22;9206;50.994;4.538;2023-05-07T19:56:09;16.70;99.90
18163;DHT22;9206;50.994;4.538;2023-05-07T19:58:59;16.70;99.90
18163;DHT22;9206;50.994;4.538;2023-05-07T20:01:49;16.70;99.90
18163;DHT22;9206;50.994;4.538;2023-05-07T20:04:43;16.60;99.90
18163;DHT22;9206;50.994;4.538;2023-05-07T20:07:47;16.60;99.90
18163;DHT22;9206;50.994;4.538;2023-05-07T20:10:36;16.50;99.90
18163;DHT22;9206;50.994;4.538;2023-05-07T20:13:27;16.50;99.90
18163;DHT22;9206;50.994;4.538;2023-05-07T20:16:30;16.50;99.90
18163;DHT22;9206;50.994;4.538;2023-05-07T20:19:28;16.50;99.90
18163;DHT22;9206;50.994;4.538;2023-05-07T20:22:25;16.40;99.90
18163;DHT22;9206;50.994;4.538;2023-05-07T20:25:22;16.40;99.90
18163;DHT22;9206;50.994;4.538;2023-05-07T20:28:20;16.30;99.90
18163;DHT22;9206;50.994;4.538;2023-05-07T20:31:10;16.40;99.90
18163;DHT22;9206;50.994;4.538;2023-05-07T20:34:20;16.30;99.90
18163;DHT22;9206;50.994;4.538;2023-05-07T20:37:12;16.30;99.90
18163;DHT22;9206;50.994;4.538;2023-05-07T20:40:02;16.30;99.90
18163;DHT22;9206;50.994;4.538;2023-05-07T20:43:02;16.30;99.90
18163;DHT22;9206;50.994;4.538;2023-05-07T20:46:06;16.30;99.90
18163;DHT22;9206;50.994;4.538;2023-05-07T20:48:57;16.30;99.90
18163;DHT22;9206;50.994;4.538;2023-05-07T20:51:47;16.30;99.90
18163;DHT22;9206;50.994;4.538;2023-05-07T20:54:36;16.30;99.90
18163;DHT22;9206;50.994;4.538;2023-05-07T20:57:35;16.30;99.90
18163;DHT22;9206;50.994;4.538;2023-05-07T21:00:40;16.20;99.90
18163;DHT22;9206;50.994;4.538;2023-05-07T21:03:30;16.20;99.90
18163;DHT22;9206;50.994;4.538;2023-05-07T21:06:19;16.20;99.90
18163;DHT22;9206;50.994;4.538;2023-05-07T21:09:11;16.20;99.90
18163;DHT22;9206;50.994;4.538;2023-05-07T21:11:58;16.10;99.90
18163;DHT22;9206;50.994;4.538;2023-05-07T21:14:49;16.10;99.90
18163;DHT22;9206;50.994;4.538;2023-05-07T21:17:44;16.10;99.90
18163;DHT22;9206;50.994;4.538;2023-05-07T21:20:58;16.10;99.90
18163;DHT22;9206;50.994;4.538;2023-05-07T21:23:59;16.10;99.90
18163;DHT22;9206;50.994;4.538;2023-05-07T21:26:54;16.10;99.90
18163;DHT22;9206;50.994;4.538;2023-05-07T21:29:47;16.00;99.90
18163;DHT22;9206;50.994;4.538;2023-05-07T21:32:38;16.00;99.90
18163;DHT22;9206;50.994;4.538;2023-05-07T21:35:37;16.00;99.90
18163;DHT22;9206;50.994;4.538;2023-05-07T21:38:41;16.00;99.90
18163;DHT22;9206;50.994;4.538;2023-05-07T21:41:31;16.00;99.90
18163;DHT22;9206;50.994;4.538;2023-05-07T21:44:22;16.00;99.90
18163;DHT22;9206;50.994;4.538;2023-05-07T21:47:15;15.90;99.90
18163;DHT22;9206;50.994;4.538;2023-05-07T21:50:06;15.90;99.90
18163;DHT22;9206;50.994;4.538;2023-05-07T21:52:55;15.90;99.90
18163;DHT22;9206;50.994;4.538;2023-05-07T21:55:48;15.90;99.90
18163;DHT22;9206;50.994;4.538;2023-05-07T21:58:50;15.90;99.90
18163;DHT22;9206;50.994;4.538;2023-05-07T22:01:41;15.90;99.90
18163;DHT22;9206;50.994;4.538;2023-05-07T22:04:29;15.80;99.90
18163;DHT22;9206;50.994;4.538;2023-05-07T22:07:22;15.80;99.90
18163;DHT22;9206;50.994;4.538;2023-05-07T22:10:12;15.80;99.90
18163;DHT22;9206;50.994;4.538;2023-05-07T22:13:03;15.80;99.90
18163;DHT22;9206;50.994;4.538;2023-05-07T22:15:54;15.80;99.90
18163;DHT22;9206;50.994;4.538;2023-05-07T22:18:44;15.80;99.90
18163;DHT22;9206;50.994;4.538;2023-05-07T22:21:40;15.70;99.90
18163;DHT22;9206;50.994;4.538;2023-05-07T22:24:29;15.80;99.90
18163;DHT22;9206;50.994;4.538;2023-05-07T22:27:22;15.70;99.90
18163;DHT22;9206;50.994;4.538;2023-05-07T22:30:13;15.70;99.90
18163;DHT22;9206;50.994;4.538;2023-05-07T22:33:07;15.70;99.90
18163;DHT22;9206;50.994;4.538;2023-05-07T22:35:54;15.70;99.90
18163;DHT22;9206;50.994;4.538;2023-05-07T22:38:43;15.60;99.90
18163;DHT22;9206;50.994;4.538;2023-05-07T22:41:34;15.50;99.90
18163;DHT22;9206;50.994;4.538;2023-05-07T22:44:24;15.50;99.90
18163;DHT22;9206;50.994;4.538;2023-05-07T22:47:14;15.50;99.90
18163;DHT22;9206;50.994;4.538;2023-05-07T22:50:05;15.50;99.90
18163;DHT22;9206;50.994;4.538;2023-05-07T22:52:52;15.50;99.90
18163;DHT22;9206;50.994;4.538;2023-05-07T22:55:43;15.40;99.90
18163;DHT22;9206;50.994;4.538;2023-05-07T22:58:37;15.30;99.90
18163;DHT22;9206;50.994;4.538;2023-05-07T23:01:30;15.30;99.90
18163;DHT22;9206;50.994;4.538;2023-05-07T23:04:21;15.30;99.90
18163;DHT22;9206;50.994;4.538;2023-05-07T23:07:13;15.30;99.90
18163;DHT22;9206;50.994;4.538;2023-05-07T23:10:07;15.20;99.90
18163;DHT22;9206;50.994;4.538;2023-05-07T23:12:58;15.20;99.90
18163;DHT22;9206;50.994;4.538;2023-05-07T23:15:51;15.10;99.90
18163;DHT22;9206;50.994;4.538;2023-05-07T23:18:42;15.10;99.90
18163;DHT22;9206;50.994;4.538;2023-05-07T23:21:29;15.10;99.90
18163;DHT22;9206;50.994;4.538;2023-05-07T23:24:24;15.10;99.90
18163;DHT22;9206;50.994;4.538;2023-05-07T23:27:14;15.10;99.90
18163;DHT22;9206;50.994;4.538;2023-05-07T23:30:09;15.10;99.90
18163;DHT22;9206;50.994;4.538;2023-05-07T23:33:03;15.10;99.90
18163;DHT22;9206;50.994;4.538;2023-05-07T23:36:06;15.10;99.90
18163;DHT22;9206;50.994;4.538;2023-05-07T23:38:54;15.10;99.90
18163;DHT22;9206;50.994;4.538;2023-05-07T23:41:43;15.10;99.90
18163;DHT22;9206;50.994;4.538;2023-05-07T23:44:33;15.10;99.90
18163;DHT22;9206;50.994;4.538;2023-05-07T23:47:27;15.10;99.90
18163;DHT22;9206;50.994;4.538;2023-05-07T23:50:21;15.10;99.90